<?xml version="1.0" encoding="UTF-8" standalone="no" ?>
<gpx xmlns="http://www.topografix.com/GPX/1/1" xmlns:xsi="http://www.w3.org/2001/XMLSchema-instance" xsi:schemaLocation="http://www.topografix.com/GPX/1/1 http://www.topografix.com/GPX/1/1/gpx.xsd" version="1.1" creator="VisuGPX - https://www.visugpx.com">
  <metadata>
    <name>Rando LN</name>
  </metadata>
  <trk>
    <name><![CDATA[morizès]]></name>
    <trkseg>
      <trkpt lat="44.5599" lon="-0.1418">
        <ele>25.2</ele>
      </trkpt>
      <trkpt lat="44.5599" lon="-0.1418">
        <ele>25.2</ele>
      </trkpt>
      <trkpt lat="44.5599" lon="-0.1418">
        <ele>25.2</ele>
      </trkpt>
      <trkpt lat="44.5599" lon="-0.1418">
        <ele>25.2</ele>
      </trkpt>
      <trkpt lat="44.5599" lon="-0.1418">
        <ele>25.2</ele>
      </trkpt>
      <trkpt lat="44.5599" lon="-0.1418">
        <ele>25.2</ele>
      </trkpt>
      <trkpt lat="44.5599" lon="-0.1418">
        <ele>25.2</ele>
      </trkpt>
      <trkpt lat="44.5599" lon="-0.1418">
        <ele>25.2</ele>
      </trkpt>
      <trkpt lat="44.5599" lon="-0.1418">
        <ele>25.2</ele>
      </trkpt>
      <trkpt lat="44.5599" lon="-0.1418">
        <ele>25.2</ele>
      </trkpt>
      <trkpt lat="44.55986" lon="-0.14259">
        <ele>25.8</ele>
      </trkpt>
      <trkpt lat="44.5599" lon="-0.14301">
        <ele>24.5</ele>
      </trkpt>
      <trkpt lat="44.56" lon="-0.14395">
        <ele>24.2</ele>
      </trkpt>
      <trkpt lat="44.5601" lon="-0.14485">
        <ele>26.7</ele>
      </trkpt>
      <trkpt lat="44.56025" lon="-0.14565">
        <ele>27.3</ele>
      </trkpt>
      <trkpt lat="44.56044" lon="-0.14634">
        <ele>28.3</ele>
      </trkpt>
      <trkpt lat="44.56082" lon="-0.14737">
        <ele>25.9</ele>
      </trkpt>
      <trkpt lat="44.56153" lon="-0.14879">
        <ele>21.5</ele>
      </trkpt>
      <trkpt lat="44.56251" lon="-0.15041">
        <ele>18.4</ele>
      </trkpt>
      <trkpt lat="44.56312" lon="-0.15134">
        <ele>16.4</ele>
      </trkpt>
      <trkpt lat="44.56351" lon="-0.15193">
        <ele>14.4</ele>
      </trkpt>
      <trkpt lat="44.56363" lon="-0.15234">
        <ele>16.5</ele>
      </trkpt>
      <trkpt lat="44.56369" lon="-0.15291">
        <ele>18.4</ele>
      </trkpt>
      <trkpt lat="44.56368" lon="-0.15335">
        <ele>19.7</ele>
      </trkpt>
      <trkpt lat="44.56362" lon="-0.15389">
        <ele>17.5</ele>
      </trkpt>
      <trkpt lat="44.56351" lon="-0.1563">
        <ele>17.6</ele>
      </trkpt>
      <trkpt lat="44.56339" lon="-0.15678">
        <ele>21.3</ele>
      </trkpt>
      <trkpt lat="44.56323" lon="-0.15833">
        <ele>21.4</ele>
      </trkpt>
      <trkpt lat="44.56319" lon="-0.15844">
        <ele>23.862</ele>
        <time>2017-03-28T16:36:18Z</time>
      </trkpt>
      <trkpt lat="44.56319" lon="-0.15844">
        <ele>23.862</ele>
        <time>2017-03-28T16:36:18Z</time>
      </trkpt>
      <trkpt lat="44.56347" lon="-0.15856">
        <ele>16.908</ele>
        <time>2017-03-28T16:36:38Z</time>
      </trkpt>
      <trkpt lat="44.56555" lon="-0.15861">
        <ele>10.008</ele>
        <time>2017-03-28T16:36:58Z</time>
      </trkpt>
      <trkpt lat="44.566" lon="-0.15693">
        <ele>11.028</ele>
        <time>2017-03-28T16:37:18Z</time>
      </trkpt>
      <trkpt lat="44.56536" lon="-0.15798">
        <ele>8.293</ele>
        <time>2017-03-28T16:37:38Z</time>
      </trkpt>
      <trkpt lat="44.56555" lon="-0.15668">
        <ele>11.133</ele>
        <time>2017-03-28T16:37:58Z</time>
      </trkpt>
      <trkpt lat="44.56651" lon="-0.1535">
        <ele>11.795</ele>
        <time>2017-03-28T16:38:18Z</time>
      </trkpt>
      <trkpt lat="44.56833" lon="-0.1485">
        <ele>11.987</ele>
        <time>2017-03-28T16:38:38Z</time>
      </trkpt>
      <trkpt lat="44.56911" lon="-0.14678">
        <ele>11.168</ele>
        <time>2017-03-28T16:38:58Z</time>
      </trkpt>
      <trkpt lat="44.56964" lon="-0.14582">
        <ele>11.394</ele>
        <time>2017-03-28T16:39:18Z</time>
      </trkpt>
      <trkpt lat="44.56987" lon="-0.14494">
        <ele>13.246</ele>
        <time>2017-03-28T16:39:38Z</time>
      </trkpt>
      <trkpt lat="44.57172" lon="-0.1423">
        <ele>13.446</ele>
        <time>2017-03-28T16:39:58Z</time>
      </trkpt>
      <trkpt lat="44.5731" lon="-0.14101">
        <ele>13.988</ele>
        <time>2017-03-28T16:40:18Z</time>
      </trkpt>
      <trkpt lat="44.57411" lon="-0.14045">
        <ele>13.016</ele>
        <time>2017-03-28T16:40:38Z</time>
      </trkpt>
      <trkpt lat="44.57556" lon="-0.14011">
        <ele>12.008</ele>
        <time>2017-03-28T16:40:58Z</time>
      </trkpt>
      <trkpt lat="44.57696" lon="-0.14024">
        <ele>14.19</ele>
        <time>2017-03-28T16:41:18Z</time>
      </trkpt>
      <trkpt lat="44.57748" lon="-0.13966">
        <ele>12.985</ele>
        <time>2017-03-28T16:41:38Z</time>
      </trkpt>
      <trkpt lat="44.57793" lon="-0.13949">
        <ele>16.225</ele>
        <time>2017-03-28T16:41:58Z</time>
      </trkpt>
      <trkpt lat="44.57776" lon="-0.13977">
        <ele>14.917</ele>
        <time>2017-03-28T16:42:18Z</time>
      </trkpt>
      <trkpt lat="44.57774" lon="-0.14018">
        <ele>15.689</ele>
        <time>2017-03-28T16:42:38Z</time>
      </trkpt>
      <trkpt lat="44.57813" lon="-0.14033">
        <ele>20.71</ele>
        <time>2017-03-28T16:42:58Z</time>
      </trkpt>
      <trkpt lat="44.57758" lon="-0.1429">
        <ele>21.786</ele>
        <time>2017-03-28T16:43:18Z</time>
      </trkpt>
      <trkpt lat="44.57826" lon="-0.1429">
        <ele>18.788</ele>
        <time>2017-03-28T16:43:38Z</time>
      </trkpt>
      <trkpt lat="44.57996" lon="-0.1426">
        <ele>16.973</ele>
        <time>2017-03-28T16:43:58Z</time>
      </trkpt>
      <trkpt lat="44.58111" lon="-0.14292">
        <ele>16.585</ele>
        <time>2017-03-28T16:44:18Z</time>
      </trkpt>
      <trkpt lat="44.58374" lon="-0.13513">
        <ele>22.113</ele>
        <time>2017-03-28T16:44:38Z</time>
      </trkpt>
      <trkpt lat="44.58406" lon="-0.13369">
        <ele>30.708</ele>
        <time>2017-03-28T16:44:58Z</time>
      </trkpt>
      <trkpt lat="44.58432" lon="-0.13202">
        <ele>23.923</ele>
        <time>2017-03-28T16:45:18Z</time>
      </trkpt>
      <trkpt lat="44.58508" lon="-0.13243">
        <ele>42.548</ele>
        <time>2017-03-28T16:45:38Z</time>
      </trkpt>
      <trkpt lat="44.58656" lon="-0.13269">
        <ele>53.678</ele>
        <time>2017-03-28T16:45:58Z</time>
      </trkpt>
      <trkpt lat="44.58843" lon="-0.13269">
        <ele>55.71</ele>
        <time>2017-03-28T16:46:18Z</time>
      </trkpt>
      <trkpt lat="44.58913" lon="-0.13518">
        <ele>64.422</ele>
        <time>2017-03-28T16:46:38Z</time>
      </trkpt>
      <trkpt lat="44.58957" lon="-0.13509">
        <ele>69.713</ele>
        <time>2017-03-28T16:46:58Z</time>
      </trkpt>
      <trkpt lat="44.58971" lon="-0.13526">
        <ele>71.879</ele>
        <time>2017-03-28T16:47:18Z</time>
      </trkpt>
      <trkpt lat="44.59014" lon="-0.13515">
        <ele>78.811</ele>
        <time>2017-03-28T16:47:38Z</time>
      </trkpt>
      <trkpt lat="44.59078" lon="-0.13743">
        <ele>91.228</ele>
        <time>2017-03-28T16:47:58Z</time>
      </trkpt>
      <trkpt lat="44.59037" lon="-0.13762">
        <ele>86.289</ele>
        <time>2017-03-28T16:48:18Z</time>
      </trkpt>
      <trkpt lat="44.58921" lon="-0.13839">
        <ele>83.417</ele>
        <time>2017-03-28T16:48:38Z</time>
      </trkpt>
      <trkpt lat="44.58939" lon="-0.13998">
        <ele>88.008</ele>
        <time>2017-03-28T16:48:58Z</time>
      </trkpt>
      <trkpt lat="44.58924" lon="-0.1405">
        <ele>87.468</ele>
        <time>2017-03-28T16:49:18Z</time>
      </trkpt>
      <trkpt lat="44.58982" lon="-0.1405">
        <ele>81.433</ele>
        <time>2017-03-28T16:49:38Z</time>
      </trkpt>
      <trkpt lat="44.58974" lon="-0.14153">
        <ele>78.313</ele>
        <time>2017-03-28T16:49:58Z</time>
      </trkpt>
      <trkpt lat="44.58999" lon="-0.14239">
        <ele>72.065</ele>
        <time>2017-03-28T16:50:18Z</time>
      </trkpt>
      <trkpt lat="44.59002" lon="-0.14387">
        <ele>69.817</ele>
        <time>2017-03-28T16:50:38Z</time>
      </trkpt>
      <trkpt lat="44.59018" lon="-0.14558">
        <ele>68.348</ele>
        <time>2017-03-28T16:50:58Z</time>
      </trkpt>
      <trkpt lat="44.59069" lon="-0.14672">
        <ele>62.444</ele>
        <time>2017-03-28T16:51:18Z</time>
      </trkpt>
      <trkpt lat="44.59142" lon="-0.14711">
        <ele>52.766</ele>
        <time>2017-03-28T16:51:38Z</time>
      </trkpt>
      <trkpt lat="44.59164" lon="-0.14751">
        <ele>49.953</ele>
        <time>2017-03-28T16:51:58Z</time>
      </trkpt>
      <trkpt lat="44.59336" lon="-0.147">
        <ele>61.504</ele>
        <time>2017-03-28T16:52:18Z</time>
      </trkpt>
      <trkpt lat="44.59416" lon="-0.14659">
        <ele>62.614</ele>
        <time>2017-03-28T16:52:38Z</time>
      </trkpt>
      <trkpt lat="44.5944" lon="-0.14629">
        <ele>64.208</ele>
        <time>2017-03-28T16:52:58Z</time>
      </trkpt>
      <trkpt lat="44.59465" lon="-0.14571">
        <ele>62.391</ele>
        <time>2017-03-28T16:53:18Z</time>
      </trkpt>
      <trkpt lat="44.59561" lon="-0.1449">
        <ele>61.636</ele>
        <time>2017-03-28T16:53:38Z</time>
      </trkpt>
      <trkpt lat="44.59761" lon="-0.14601">
        <ele>66.226</ele>
        <time>2017-03-28T16:53:58Z</time>
      </trkpt>
      <trkpt lat="44.5981" lon="-0.14578">
        <ele>65.748</ele>
        <time>2017-03-28T16:54:18Z</time>
      </trkpt>
      <trkpt lat="44.59874" lon="-0.14505">
        <ele>61.87</ele>
        <time>2017-03-28T16:54:38Z</time>
      </trkpt>
      <trkpt lat="44.59941" lon="-0.14449">
        <ele>67.661</ele>
        <time>2017-03-28T16:54:58Z</time>
      </trkpt>
      <trkpt lat="44.59947" lon="-0.14086">
        <ele>71.417</ele>
        <time>2017-03-28T16:55:18Z</time>
      </trkpt>
      <trkpt lat="44.60076" lon="-0.13889">
        <ele>79.439</ele>
        <time>2017-03-28T16:55:38Z</time>
      </trkpt>
      <trkpt lat="44.60123" lon="-0.13957">
        <ele>83.219</ele>
        <time>2017-03-28T16:55:58Z</time>
      </trkpt>
      <trkpt lat="44.60469" lon="-0.14158">
        <ele>90.3</ele>
      </trkpt>
      <trkpt lat="44.60472" lon="-0.14154">
        <ele>90.6</ele>
      </trkpt>
      <trkpt lat="44.60471" lon="-0.14153">
        <ele>92.909</ele>
        <time>2017-03-28T16:56:18Z</time>
      </trkpt>
      <trkpt lat="44.60471" lon="-0.14153">
        <ele>92.909</ele>
        <time>2017-03-28T16:56:18Z</time>
      </trkpt>
      <trkpt lat="44.60471" lon="-0.14153">
        <ele>92.909</ele>
        <time>2017-03-28T16:56:18Z</time>
      </trkpt>
      <trkpt lat="44.60471" lon="-0.14153">
        <ele>92.909</ele>
        <time>2017-03-28T16:56:18Z</time>
      </trkpt>
      <trkpt lat="44.60311" lon="-0.13848">
        <ele>91.719</ele>
        <time>2017-03-28T16:56:38Z</time>
      </trkpt>
      <trkpt lat="44.60253" lon="-0.13751">
        <ele>96.108</ele>
        <time>2017-03-28T16:56:58Z</time>
      </trkpt>
      <trkpt lat="44.60233" lon="-0.13726">
        <ele>94.547</ele>
        <time>2017-03-28T16:57:18Z</time>
      </trkpt>
      <trkpt lat="44.6008" lon="-0.13475">
        <ele>92.972</ele>
        <time>2017-03-28T16:57:38Z</time>
      </trkpt>
      <trkpt lat="44.60061" lon="-0.13455">
        <ele>92.712</ele>
        <time>2017-03-28T16:57:58Z</time>
      </trkpt>
      <trkpt lat="44.59873" lon="-0.13163">
        <ele>89.574</ele>
        <time>2017-03-28T16:58:18Z</time>
      </trkpt>
      <trkpt lat="44.59929" lon="-0.13078">
        <ele>94.066</ele>
        <time>2017-03-28T16:58:38Z</time>
      </trkpt>
      <trkpt lat="44.59963" lon="-0.12998">
        <ele>93.047</ele>
        <time>2017-03-28T16:58:58Z</time>
      </trkpt>
      <trkpt lat="44.60007" lon="-0.12958">
        <ele>92.223</ele>
        <time>2017-03-28T16:59:18Z</time>
      </trkpt>
      <trkpt lat="44.59989" lon="-0.12855">
        <ele>90.945</ele>
        <time>2017-03-28T16:59:38Z</time>
      </trkpt>
      <trkpt lat="44.59944" lon="-0.12799">
        <ele>88.363</ele>
        <time>2017-03-28T16:59:58Z</time>
      </trkpt>
      <trkpt lat="44.59868" lon="-0.12621">
        <ele>96.044</ele>
        <time>2017-03-28T17:00:18Z</time>
      </trkpt>
      <trkpt lat="44.59776" lon="-0.12552">
        <ele>93.818</ele>
        <time>2017-03-28T17:00:38Z</time>
      </trkpt>
      <trkpt lat="44.59732" lon="-0.12498">
        <ele>96.908</ele>
        <time>2017-03-28T17:00:58Z</time>
      </trkpt>
      <trkpt lat="44.59709" lon="-0.12447">
        <ele>97.092</ele>
        <time>2017-03-28T17:01:18Z</time>
      </trkpt>
      <trkpt lat="44.59677" lon="-0.12269">
        <ele>99.667</ele>
        <time>2017-03-28T17:01:38Z</time>
      </trkpt>
      <trkpt lat="44.59599" lon="-0.12065">
        <ele>112.087</ele>
        <time>2017-03-28T17:01:58Z</time>
      </trkpt>
      <trkpt lat="44.59524" lon="-0.11934">
        <ele>117.169</ele>
        <time>2017-03-28T17:02:18Z</time>
      </trkpt>
      <trkpt lat="44.59529" lon="-0.11803">
        <ele>122.721</ele>
        <time>2017-03-28T17:02:38Z</time>
      </trkpt>
      <trkpt lat="44.59489" lon="-0.11578">
        <ele>105.832</ele>
        <time>2017-03-28T17:02:58Z</time>
      </trkpt>
      <trkpt lat="44.59616" lon="-0.11578">
        <ele>111.838</ele>
        <time>2017-03-28T17:03:18Z</time>
      </trkpt>
      <trkpt lat="44.59643" lon="-0.11486">
        <ele>108.49</ele>
        <time>2017-03-28T17:03:38Z</time>
      </trkpt>
      <trkpt lat="44.59637" lon="-0.11367">
        <ele>111.669</ele>
        <time>2017-03-28T17:03:58Z</time>
      </trkpt>
      <trkpt lat="44.59622" lon="-0.11312">
        <ele>116.004</ele>
        <time>2017-03-28T17:04:18Z</time>
      </trkpt>
      <trkpt lat="44.59599" lon="-0.11288">
        <ele>116.924</ele>
        <time>2017-03-28T17:04:38Z</time>
      </trkpt>
      <trkpt lat="44.59562" lon="-0.11091">
        <ele>117.808</ele>
        <time>2017-03-28T17:04:58Z</time>
      </trkpt>
      <trkpt lat="44.59549" lon="-0.11033">
        <ele>118.272</ele>
        <time>2017-03-28T17:05:18Z</time>
      </trkpt>
      <trkpt lat="44.59538" lon="-0.10928">
        <ele>115.927</ele>
        <time>2017-03-28T17:05:38Z</time>
      </trkpt>
      <trkpt lat="44.59616" lon="-0.1091">
        <ele>116.797</ele>
        <time>2017-03-28T17:05:58Z</time>
      </trkpt>
      <trkpt lat="44.59677" lon="-0.10874">
        <ele>114.579</ele>
        <time>2017-03-28T17:06:18Z</time>
      </trkpt>
      <trkpt lat="44.5985" lon="-0.11052">
        <ele>86.181</ele>
        <time>2017-03-28T17:06:38Z</time>
      </trkpt>
      <trkpt lat="44.59903" lon="-0.11086">
        <ele>77.682</ele>
        <time>2017-03-28T17:06:58Z</time>
      </trkpt>
      <trkpt lat="44.59978" lon="-0.11121">
        <ele>70.978</ele>
        <time>2017-03-28T17:07:18Z</time>
      </trkpt>
      <trkpt lat="44.60024" lon="-0.11125">
        <ele>71.13</ele>
        <time>2017-03-28T17:07:38Z</time>
      </trkpt>
      <trkpt lat="44.60123" lon="-0.11097">
        <ele>68.836</ele>
        <time>2017-03-28T17:07:58Z</time>
      </trkpt>
      <trkpt lat="44.60122" lon="-0.10949">
        <ele>74.717</ele>
        <time>2017-03-28T17:08:18Z</time>
      </trkpt>
      <trkpt lat="44.60071" lon="-0.10898">
        <ele>77.118</ele>
        <time>2017-03-28T17:08:38Z</time>
      </trkpt>
      <trkpt lat="44.60067" lon="-0.10719">
        <ele>79.008</ele>
        <time>2017-03-28T17:08:58Z</time>
      </trkpt>
      <trkpt lat="44.60122" lon="-0.10726">
        <ele>75.369</ele>
        <time>2017-03-28T17:09:18Z</time>
      </trkpt>
      <trkpt lat="44.60288" lon="-0.10685">
        <ele>68.684</ele>
        <time>2017-03-28T17:09:38Z</time>
      </trkpt>
      <trkpt lat="44.60284" lon="-0.10498">
        <ele>62.694</ele>
        <time>2017-03-28T17:09:58Z</time>
      </trkpt>
      <trkpt lat="44.60452" lon="-0.10483">
        <ele>57.726</ele>
        <time>2017-03-28T17:10:18Z</time>
      </trkpt>
      <trkpt lat="44.6045" lon="-0.10325">
        <ele>49.018</ele>
        <time>2017-03-28T17:10:38Z</time>
      </trkpt>
      <trkpt lat="44.60484" lon="-0.1032">
        <ele>45.019</ele>
        <time>2017-03-28T17:10:58Z</time>
      </trkpt>
      <trkpt lat="44.60473" lon="-0.10282">
        <ele>44.115</ele>
        <time>2017-03-28T17:11:18Z</time>
      </trkpt>
      <trkpt lat="44.60493" lon="-0.10112">
        <ele>41.757</ele>
        <time>2017-03-28T17:11:38Z</time>
      </trkpt>
      <trkpt lat="44.60526" lon="-0.10029">
        <ele>43.094</ele>
        <time>2017-03-28T17:11:58Z</time>
      </trkpt>
      <trkpt lat="44.6053" lon="-0.09979">
        <ele>42.757</ele>
        <time>2017-03-28T17:12:18Z</time>
      </trkpt>
      <trkpt lat="44.60574" lon="-0.09863">
        <ele>32.222</ele>
        <time>2017-03-28T17:12:38Z</time>
      </trkpt>
      <trkpt lat="44.60557" lon="-0.09724">
        <ele>22.208</ele>
        <time>2017-03-28T17:12:58Z</time>
      </trkpt>
      <trkpt lat="44.60591" lon="-0.09743">
        <ele>23.615</ele>
        <time>2017-03-28T17:13:18Z</time>
      </trkpt>
      <trkpt lat="44.60638" lon="-0.0981">
        <ele>25.81</ele>
        <time>2017-03-28T17:13:38Z</time>
      </trkpt>
      <trkpt lat="44.60669" lon="-0.09812">
        <ele>28.14</ele>
        <time>2017-03-28T17:13:58Z</time>
      </trkpt>
      <trkpt lat="44.60701" lon="-0.09765">
        <ele>31.112</ele>
        <time>2017-03-28T17:14:18Z</time>
      </trkpt>
      <trkpt lat="44.60774" lon="-0.09825">
        <ele>35.954</ele>
        <time>2017-03-28T17:14:38Z</time>
      </trkpt>
      <trkpt lat="44.60817" lon="-0.09878">
        <ele>40.845</ele>
        <time>2017-03-28T17:14:58Z</time>
      </trkpt>
      <trkpt lat="44.60837" lon="-0.09932">
        <ele>42.381</ele>
        <time>2017-03-28T17:15:18Z</time>
      </trkpt>
      <trkpt lat="44.60896" lon="-0.1002">
        <ele>50.123</ele>
        <time>2017-03-28T17:15:38Z</time>
      </trkpt>
      <trkpt lat="44.60936" lon="-0.09928">
        <ele>49.663</ele>
        <time>2017-03-28T17:15:58Z</time>
      </trkpt>
      <trkpt lat="44.60974" lon="-0.09885">
        <ele>49.144</ele>
        <time>2017-03-28T17:16:18Z</time>
      </trkpt>
      <trkpt lat="44.61025" lon="-0.09868">
        <ele>49.518</ele>
        <time>2017-03-28T17:16:38Z</time>
      </trkpt>
      <trkpt lat="44.61101" lon="-0.09816">
        <ele>46.508</ele>
        <time>2017-03-28T17:16:58Z</time>
      </trkpt>
      <trkpt lat="44.61113" lon="-0.09707">
        <ele>42.472</ele>
        <time>2017-03-28T17:17:18Z</time>
      </trkpt>
      <trkpt lat="44.61171" lon="-0.09535">
        <ele>29.027</ele>
        <time>2017-03-28T17:17:38Z</time>
      </trkpt>
      <trkpt lat="44.61147" lon="-0.09374">
        <ele>25.987</ele>
        <time>2017-03-28T17:17:58Z</time>
      </trkpt>
      <trkpt lat="44.61199" lon="-0.09149">
        <ele>19.339</ele>
        <time>2017-03-28T17:18:18Z</time>
      </trkpt>
      <trkpt lat="44.61237" lon="-0.09084">
        <ele>18.091</ele>
        <time>2017-03-28T17:18:38Z</time>
      </trkpt>
      <trkpt lat="44.6129" lon="-0.09041">
        <ele>18.082</ele>
        <time>2017-03-28T17:18:58Z</time>
      </trkpt>
      <trkpt lat="44.61365" lon="-0.09036">
        <ele>15.048</ele>
        <time>2020-11-24T22:18:40Z</time>
      </trkpt>
      <trkpt lat="44.6145" lon="-0.09126">
        <ele>18.11</ele>
        <time>2020-11-24T22:19:00Z</time>
      </trkpt>
      <trkpt lat="44.61571" lon="-0.09039">
        <ele>18.681</ele>
        <time>2020-11-24T22:19:20Z</time>
      </trkpt>
      <trkpt lat="44.61656" lon="-0.0904">
        <ele>18.161</ele>
        <time>2020-11-24T22:19:40Z</time>
      </trkpt>
      <trkpt lat="44.61728" lon="-0.09023">
        <ele>16.017</ele>
        <time>2020-11-24T22:20:00Z</time>
      </trkpt>
      <trkpt lat="44.61798" lon="-0.08985">
        <ele>18.408</ele>
        <time>2020-11-24T22:20:20Z</time>
      </trkpt>
    </trkseg>
  </trk>
</gpx>